<?xml version="1.0" encoding="utf-8"?>
<gpx xmlns:xsi="http://www.w3.org/2001/XMLSchema-instance" xmlns:xsd="http://www.w3.org/2001/XMLSchema" version="1.1" creator="Shapelink.com" xmlns="http://www.topografix.com/GPX/1/1" xmlns:gpxtpx="http://www.garmin.com/xmlschemas/TrackPointExtension/v1">
  <metadata>
    <name>Övrigt 2.05 km, 2019-04-27</name>
    <desc></desc>
    <author><name>Marian Moron</name></author> 
    <time>2019-04-27T20:49:58Z</time>
  </metadata>
  <trk>
    <name>Övrigt 2.05 km, 2019-04-27</name>
    <trkseg>
      <trkpt lat="51.229820424924" lon="4.457992640136">
        <ele>0</ele>
        <time>2019-04-27T20:49:58Z</time>
      </trkpt>
      <trkpt lat="51.229928635253" lon="4.458131779676">
        <ele>0</ele>
        <time>2019-04-27T20:50:15Z</time>
      </trkpt>
      <trkpt lat="51.229967191993" lon="4.458303943902">
        <ele>0</ele>
        <time>2019-04-27T20:50:45Z</time>
      </trkpt>
      <trkpt lat="51.230050675717" lon="4.458865447383">
        <ele>0</ele>
        <time>2019-04-27T20:51:16Z</time>
      </trkpt>
      <trkpt lat="51.23020548941" lon="4.458819346933">
        <ele>0</ele>
        <time>2019-04-27T20:51:35Z</time>
      </trkpt>
      <trkpt lat="51.230649311015" lon="4.458682386687">
        <ele>6.4</ele>
        <time>2019-04-27T20:52:22Z</time>
      </trkpt>
      <trkpt lat="51.230659704571" lon="4.458678447194">
        <ele>6.4</ele>
        <time>2019-04-27T20:52:23Z</time>
      </trkpt>
      <trkpt lat="51.230928176828" lon="4.458519358732">
        <ele>0</ele>
        <time>2019-04-27T20:53:12Z</time>
      </trkpt>
      <trkpt lat="51.231242581897" lon="4.458341746271">
        <ele>0</ele>
        <time>2019-04-27T20:54:15Z</time>
      </trkpt>
      <trkpt lat="51.231455482157" lon="4.45836529941">
        <ele>0</ele>
        <time>2019-04-27T20:54:45Z</time>
      </trkpt>
      <trkpt lat="51.23155916626" lon="4.458743406919">
        <ele>0</ele>
        <time>2019-04-27T20:55:11Z</time>
      </trkpt>
      <trkpt lat="51.231702412931" lon="4.458879864251">
        <ele>2.6</ele>
        <time>2019-04-27T20:55:54Z</time>
      </trkpt>
      <trkpt lat="51.231764774267" lon="4.459104750628">
        <ele>0</ele>
        <time>2019-04-27T20:56:08Z</time>
      </trkpt>
      <trkpt lat="51.23181397602" lon="4.459370959772">
        <ele>0</ele>
        <time>2019-04-27T20:56:26Z</time>
      </trkpt>
      <trkpt lat="51.231831326553" lon="4.459483193413">
        <ele>0</ele>
        <time>2019-04-27T20:56:32Z</time>
      </trkpt>
      <trkpt lat="51.231912798621" lon="4.460031872587">
        <ele>0</ele>
        <time>2019-04-27T20:57:11Z</time>
      </trkpt>
      <trkpt lat="51.232036347827" lon="4.460721283862">
        <ele>0</ele>
        <time>2019-04-27T20:57:55Z</time>
      </trkpt>
      <trkpt lat="51.232043891537" lon="4.460965867704">
        <ele>0</ele>
        <time>2019-04-27T20:58:16Z</time>
      </trkpt>
      <trkpt lat="51.232068199047" lon="4.461080699734">
        <ele>0</ele>
        <time>2019-04-27T20:58:23Z</time>
      </trkpt>
      <trkpt lat="51.232110108547" lon="4.461185222027">
        <ele>0</ele>
        <time>2019-04-27T20:58:34Z</time>
      </trkpt>
      <trkpt lat="51.232193592271" lon="4.461425698738">
        <ele>2.4</ele>
        <time>2019-04-27T20:58:55Z</time>
      </trkpt>
      <trkpt lat="51.232201555076" lon="4.461857282769">
        <ele>0</ele>
        <time>2019-04-27T20:59:33Z</time>
      </trkpt>
      <trkpt lat="51.232240027997" lon="4.462191217665">
        <ele>0</ele>
        <time>2019-04-27T20:59:53Z</time>
      </trkpt>
      <trkpt lat="51.232261737118" lon="4.462350473765">
        <ele>0</ele>
        <time>2019-04-27T21:00:01Z</time>
      </trkpt>
      <trkpt lat="51.232393835862" lon="4.462802593451">
        <ele>0</ele>
        <time>2019-04-27T21:00:35Z</time>
      </trkpt>
      <trkpt lat="51.232376904424" lon="4.462905942278">
        <ele>0</ele>
        <time>2019-04-27T21:01:03Z</time>
      </trkpt>
      <trkpt lat="51.232348405964" lon="4.462892112143">
        <ele>0</ele>
        <time>2019-04-27T21:01:07Z</time>
      </trkpt>
      <trkpt lat="51.23212662089" lon="4.463275751706">
        <ele>1.8</ele>
        <time>2019-04-27T21:02:24Z</time>
      </trkpt>
      <trkpt lat="51.232125279786" lon="4.463288659832">
        <ele>1.6</ele>
        <time>2019-04-27T21:02:25Z</time>
      </trkpt>
      <trkpt lat="51.232122178483" lon="4.463347836046">
        <ele>2.6</ele>
        <time>2019-04-27T21:02:30Z</time>
      </trkpt>
      <trkpt lat="51.232096194593" lon="4.463372395013">
        <ele>3.2</ele>
        <time>2019-04-27T21:02:32Z</time>
      </trkpt>
      <trkpt lat="51.231996449983" lon="4.463549085465">
        <ele>3</ele>
        <time>2019-04-27T21:02:45Z</time>
      </trkpt>
      <trkpt lat="51.231584814874" lon="4.463367449692">
        <ele>5.8</ele>
        <time>2019-04-27T21:03:49Z</time>
      </trkpt>
      <trkpt lat="51.231570649463" lon="4.463347165494">
        <ele>6.4</ele>
        <time>2019-04-27T21:03:50Z</time>
      </trkpt>
      <trkpt lat="51.231540390804" lon="4.463336436662">
        <ele>7.6</ele>
        <time>2019-04-27T21:04:01Z</time>
      </trkpt>
      <trkpt lat="51.231514574552" lon="4.463308022021">
        <ele>6.2</ele>
        <time>2019-04-27T21:04:32Z</time>
      </trkpt>
      <trkpt lat="51.231474676708" lon="4.463252282386">
        <ele>4.4</ele>
        <time>2019-04-27T21:04:45Z</time>
      </trkpt>
      <trkpt lat="51.231417595969" lon="4.463198554407">
        <ele>3</ele>
        <time>2019-04-27T21:04:53Z</time>
      </trkpt>
      <trkpt lat="51.231097575027" lon="4.463179527494">
        <ele>3.8</ele>
        <time>2019-04-27T21:06:40Z</time>
      </trkpt>
      <trkpt lat="51.230959608953" lon="4.463250773644">
        <ele>14.2</ele>
        <time>2019-04-27T21:07:22Z</time>
      </trkpt>
      <trkpt lat="51.230757353706" lon="4.463269381462">
        <ele>18.6</ele>
        <time>2019-04-27T21:07:45Z</time>
      </trkpt>
      <trkpt lat="51.230481505377" lon="4.463599293046">
        <ele>5</ele>
        <time>2019-04-27T21:08:37Z</time>
      </trkpt>
      <trkpt lat="51.230491060743" lon="4.463633826474">
        <ele>4.8</ele>
        <time>2019-04-27T21:08:38Z</time>
      </trkpt>
      <trkpt lat="51.230475302771" lon="4.463735079826">
        <ele>5.2</ele>
        <time>2019-04-27T21:08:46Z</time>
      </trkpt>
      <trkpt lat="51.230194341483" lon="4.464053508207">
        <ele>9.8</ele>
        <time>2019-04-27T21:09:38Z</time>
      </trkpt>
      <trkpt lat="51.230111444492" lon="4.464145960564">
        <ele>5</ele>
        <time>2019-04-27T21:09:56Z</time>
      </trkpt>
      <trkpt lat="51.229983871974" lon="4.464157695224">
        <ele>0.8</ele>
        <time>2019-04-27T21:10:12Z</time>
      </trkpt>
      <trkpt lat="51.229881780432" lon="4.464168424056">
        <ele>0</ele>
        <time>2019-04-27T21:10:24Z</time>
      </trkpt>
      <trkpt lat="51.229751777163" lon="4.464279065136">
        <ele>0.4</ele>
        <time>2019-04-27T21:10:59Z</time>
      </trkpt>
      <trkpt lat="51.229721434685" lon="4.464298511144">
        <ele>0</ele>
        <time>2019-04-27T21:11:03Z</time>
      </trkpt>
      <trkpt lat="51.229274679415" lon="4.464331116735">
        <ele>0</ele>
        <time>2019-04-27T21:11:49Z</time>
      </trkpt>
      <trkpt lat="51.229170743855" lon="4.464350562743">
        <ele>0</ele>
        <time>2019-04-27T21:12:00Z</time>
      </trkpt>
      <trkpt lat="51.229082733905" lon="4.464357352082">
        <ele>0</ele>
        <time>2019-04-27T21:12:08Z</time>
      </trkpt>
      <trkpt lat="51.228808981051" lon="4.464331368192">
        <ele>0</ele>
        <time>2019-04-27T21:12:42Z</time>
      </trkpt>
      <trkpt lat="51.228674032461" lon="4.464169346065">
        <ele>2.2</ele>
        <time>2019-04-27T21:13:05Z</time>
      </trkpt>
      <trkpt lat="51.228593063307" lon="4.464020232064">
        <ele>1.8</ele>
        <time>2019-04-27T21:13:34Z</time>
      </trkpt>
      <trkpt lat="51.228578143525" lon="4.463829711477">
        <ele>3.6</ele>
        <time>2019-04-27T21:13:49Z</time>
      </trkpt>
      <trkpt lat="51.228357783374" lon="4.463381531284">
        <ele>9.6</ele>
        <time>2019-04-27T21:15:17Z</time>
      </trkpt>
      <trkpt lat="51.228037259518" lon="4.463073915554">
        <ele>17</ele>
        <time>2019-04-27T21:17:07Z</time>
      </trkpt>
      <trkpt lat="51.227964085531" lon="4.462965956682">
        <ele>22.4</ele>
        <time>2019-04-27T21:17:19Z</time>
      </trkpt>
      <trkpt lat="51.227916811615" lon="4.462253495182">
        <ele>8</ele>
        <time>2019-04-27T21:18:04Z</time>
      </trkpt>
      <trkpt lat="51.227831232416" lon="4.461618985352">
        <ele>6.4</ele>
        <time>2019-04-27T21:18:48Z</time>
      </trkpt>
      <trkpt lat="51.227843805266" lon="4.461565592649">
        <ele>7</ele>
        <time>2019-04-27T21:19:26Z</time>
      </trkpt>
      <trkpt lat="51.227847241845" lon="4.460843994878">
        <ele>4.8</ele>
        <time>2019-04-27T21:20:01Z</time>
      </trkpt>
      <trkpt lat="51.227850091691" lon="4.460587257281">
        <ele>1.8</ele>
        <time>2019-04-27T21:20:20Z</time>
      </trkpt>
      <trkpt lat="51.227969952861" lon="4.460434287606">
        <ele>2.8</ele>
        <time>2019-04-27T21:20:43Z</time>
      </trkpt>
      <trkpt lat="51.22836817693" lon="4.460112171189">
        <ele>16.8</ele>
        <time>2019-04-27T21:21:25Z</time>
      </trkpt>
      <trkpt lat="51.228450906283" lon="4.459602719307">
        <ele>7.2</ele>
        <time>2019-04-27T21:22:10Z</time>
      </trkpt>
      <trkpt lat="51.228509914859" lon="4.459349083013">
        <ele>6.2</ele>
        <time>2019-04-27T21:22:30Z</time>
      </trkpt>
      <trkpt lat="51.228529025591" lon="4.458978100119">
        <ele>3.6</ele>
        <time>2019-04-27T21:22:47Z</time>
      </trkpt>
      <trkpt lat="51.228550483255" lon="4.458852203981">
        <ele>1.4</ele>
        <time>2019-04-27T21:22:55Z</time>
      </trkpt>
      <trkpt lat="51.228593063307" lon="4.458250635018">
        <ele>6.8</ele>
        <time>2019-04-27T21:23:33Z</time>
      </trkpt>
      <trkpt lat="51.228605217062" lon="4.458162708887">
        <ele>7.4</ele>
        <time>2019-04-27T21:23:41Z</time>
      </trkpt>
      <trkpt lat="51.228656933385" lon="4.458110741107">
        <ele>9</ele>
        <time>2019-04-27T21:23:47Z</time>
      </trkpt>
      <trkpt lat="51.228771513958" lon="4.458086601235">
        <ele>13.2</ele>
        <time>2019-04-27T21:24:01Z</time>
      </trkpt>
      <trkpt lat="51.228855500596" lon="4.458083583751">
        <ele>10.8</ele>
        <time>2019-04-27T21:24:09Z</time>
      </trkpt>
      <trkpt lat="51.229322120969" lon="4.458034298179">
        <ele>3</ele>
        <time>2019-04-27T21:24:58Z</time>
      </trkpt>
      <trkpt lat="51.229771474628" lon="4.457956681785">
        <ele>10.6</ele>
        <time>2019-04-27T21:25:42Z</time>
      </trkpt>
      <trkpt lat="51.229819670553" lon="4.457963052029">
        <ele>9.8</ele>
        <time>2019-04-27T21:25:46Z</time>
      </trkpt>
      <trkpt lat="51.229737360295" lon="4.457945114763">
        <ele>0</ele>
        <time>2019-04-27T21:26:15Z</time>
      </trkpt>
      <trkpt lat="51.229751777163" lon="4.457888285481">
        <ele>0</ele>
        <time>2019-04-27T21:26:20Z</time>
      </trkpt>
      <trkpt lat="51.229810366644" lon="4.457800024074">
        <ele>1</ele>
        <time>2019-04-27T21:26:31Z</time>
      </trkpt>
      <trkpt lat="51.229951853116" lon="4.457100638338">
        <ele>12.8</ele>
        <time>2019-04-27T21:27:08Z</time>
      </trkpt>
      <trkpt lat="51.229760242882" lon="4.456806601286">
        <ele>7.8</ele>
        <time>2019-04-27T21:27:31Z</time>
      </trkpt>
      <trkpt lat="51.229765188203" lon="4.456748682357">
        <ele>9.4</ele>
        <time>2019-04-27T21:28:06Z</time>
      </trkpt>
      <trkpt lat="51.229859149302" lon="4.456886396974">
        <ele>9.6</ele>
        <time>2019-04-27T21:28:17Z</time>
      </trkpt>
      <trkpt lat="51.229957301351" lon="4.457415294864">
        <ele>10.2</ele>
        <time>2019-04-27T21:28:52Z</time>
      </trkpt>
      <trkpt lat="51.229932407108" lon="4.457842436488">
        <ele>5</ele>
        <time>2019-04-27T21:29:19Z</time>
      </trkpt>
      <trkpt lat="51.229885384649" lon="4.457911754801">
        <ele>2.6</ele>
        <time>2019-04-27T21:29:25Z</time>
      </trkpt>
      <trkpt lat="51.229759991425" lon="4.457939163614">
        <ele>0</ele>
        <time>2019-04-27T21:29:39Z</time>
      </trkpt>
    </trkseg>
  </trk>
</gpx>